sensor_id;sensor_type;location;lat;lon;timestamp;P1;durP1;ratioP1;P2;durP2;ratioP2
57573;SDS011;68988;49.000;21.242;2024-01-25T00:01:16;2.95;;;2.75;;
57573;SDS011;68988;49.000;21.242;2024-01-25T00:03:42;2.50;;;2.40;;
57573;SDS011;68988;49.000;21.242;2024-01-25T00:06:07;2.92;;;2.78;;
57573;SDS011;68988;49.000;21.242;2024-01-25T00:08:33;2.75;;;2.60;;
57573;SDS011;68988;49.000;21.242;2024-01-25T00:10:59;3.35;;;3.15;;
57573;SDS011;68988;49.000;21.242;2024-01-25T00:13:25;2.20;;;2.10;;
57573;SDS011;68988;49.000;21.242;2024-01-25T00:15:51;2.90;;;2.70;;
57573;SDS011;68988;49.000;21.242;2024-01-25T00:18:16;2.83;;;2.72;;
57573;SDS011;68988;49.000;21.242;2024-01-25T00:20:42;3.03;;;2.67;;
57573;SDS011;68988;49.000;21.242;2024-01-25T00:23:07;2.80;;;2.70;;
57573;SDS011;68988;49.000;21.242;2024-01-25T00:25:32;2.95;;;2.85;;
57573;SDS011;68988;49.000;21.242;2024-01-25T00:27:58;2.70;;;2.60;;
57573;SDS011;68988;49.000;21.242;2024-01-25T00:30:23;2.80;;;2.70;;
57573;SDS011;68988;49.000;21.242;2024-01-25T00:32:48;2.60;;;2.50;;
57573;SDS011;68988;49.000;21.242;2024-01-25T00:35:14;2.65;;;2.55;;
57573;SDS011;68988;49.000;21.242;2024-01-25T00:37:40;3.05;;;2.95;;
57573;SDS011;68988;49.000;21.242;2024-01-25T00:40:06;2.80;;;2.60;;
57573;SDS011;68988;49.000;21.242;2024-01-25T00:42:33;2.53;;;2.42;;
57573;SDS011;68988;49.000;21.242;2024-01-25T00:45:18;2.75;;;2.65;;
57573;SDS011;68988;49.000;21.242;2024-01-25T00:47:44;2.70;;;2.60;;
57573;SDS011;68988;49.000;21.242;2024-01-25T00:50:10;3.00;;;2.80;;
57573;SDS011;68988;49.000;21.242;2024-01-25T00:52:36;2.60;;;2.50;;
57573;SDS011;68988;49.000;21.242;2024-01-25T00:55:01;2.65;;;2.45;;
57573;SDS011;68988;49.000;21.242;2024-01-25T00:57:27;2.60;;;2.50;;
57573;SDS011;68988;49.000;21.242;2024-01-25T00:59:53;2.78;;;2.60;;
57573;SDS011;68988;49.000;21.242;2024-01-25T01:02:18;2.85;;;2.75;;
57573;SDS011;68988;49.000;21.242;2024-01-25T01:04:46;2.83;;;2.63;;
57573;SDS011;68988;49.000;21.242;2024-01-25T01:07:12;2.97;;;2.78;;
57573;SDS011;68988;49.000;21.242;2024-01-25T01:09:38;3.15;;;3.05;;
57573;SDS011;68988;49.000;21.242;2024-01-25T01:12:03;2.83;;;2.72;;
57573;SDS011;68988;49.000;21.242;2024-01-25T01:14:29;2.45;;;2.35;;
57573;SDS011;68988;49.000;21.242;2024-01-25T01:16:54;2.85;;;2.75;;
57573;SDS011;68988;49.000;21.242;2024-01-25T01:19:20;2.63;;;2.53;;
57573;SDS011;68988;49.000;21.242;2024-01-25T01:21:45;2.60;;;2.50;;
57573;SDS011;68988;49.000;21.242;2024-01-25T01:24:11;2.75;;;2.65;;
57573;SDS011;68988;49.000;21.242;2024-01-25T01:26:36;2.70;;;2.60;;
57573;SDS011;68988;49.000;21.242;2024-01-25T01:29:02;2.72;;;2.63;;
57573;SDS011;68988;49.000;21.242;2024-01-25T01:31:28;2.75;;;2.65;;
57573;SDS011;68988;49.000;21.242;2024-01-25T01:33:53;2.80;;;2.67;;
57573;SDS011;68988;49.000;21.242;2024-01-25T01:36:18;2.97;;;2.78;;
57573;SDS011;68988;49.000;21.242;2024-01-25T01:38:44;3.00;;;2.80;;
57573;SDS011;68988;49.000;21.242;2024-01-25T01:41:10;2.60;;;2.50;;
57573;SDS011;68988;49.000;21.242;2024-01-25T01:43:37;2.75;;;2.65;;
57573;SDS011;68988;49.000;21.242;2024-01-25T01:46:20;3.03;;;2.80;;
57573;SDS011;68988;49.000;21.242;2024-01-25T01:48:54;2.70;;;2.60;;
57573;SDS011;68988;49.000;21.242;2024-01-25T01:51:20;2.75;;;2.60;;
57573;SDS011;68988;49.000;21.242;2024-01-25T01:53:45;2.40;;;2.30;;
57573;SDS011;68988;49.000;21.242;2024-01-25T01:56:11;2.58;;;2.42;;
57573;SDS011;68988;49.000;21.242;2024-01-25T01:58:37;3.10;;;2.90;;
57573;SDS011;68988;49.000;21.242;2024-01-25T02:01:04;2.70;;;2.60;;
57573;SDS011;68988;49.000;21.242;2024-01-25T02:03:29;2.70;;;2.60;;
57573;SDS011;68988;49.000;21.242;2024-01-25T02:05:54;3.25;;;3.05;;
57573;SDS011;68988;49.000;21.242;2024-01-25T02:08:20;2.80;;;2.60;;
57573;SDS011;68988;49.000;21.242;2024-01-25T02:10:45;3.10;;;2.97;;
57573;SDS011;68988;49.000;21.242;2024-01-25T02:13:10;2.67;;;2.58;;
57573;SDS011;68988;49.000;21.242;2024-01-25T02:15:36;3.70;;;2.60;;
57573;SDS011;68988;49.000;21.242;2024-01-25T02:18:01;3.10;;;2.90;;
57573;SDS011;68988;49.000;21.242;2024-01-25T02:20:26;2.70;;;2.50;;
57573;SDS011;68988;49.000;21.242;2024-01-25T02:22:52;2.78;;;2.67;;
57573;SDS011;68988;49.000;21.242;2024-01-25T02:25:17;2.60;;;2.50;;
57573;SDS011;68988;49.000;21.242;2024-01-25T02:27:42;2.88;;;2.78;;
57573;SDS011;68988;49.000;21.242;2024-01-25T02:30:08;2.63;;;2.53;;
57573;SDS011;68988;49.000;21.242;2024-01-25T02:32:34;3.00;;;2.90;;
57573;SDS011;68988;49.000;21.242;2024-01-25T02:34:59;2.75;;;2.65;;
57573;SDS011;68988;49.000;21.242;2024-01-25T02:37:25;2.60;;;2.50;;
57573;SDS011;68988;49.000;21.242;2024-01-25T02:39:50;2.70;;;2.60;;
57573;SDS011;68988;49.000;21.242;2024-01-25T02:42:16;3.25;;;3.05;;
57573;SDS011;68988;49.000;21.242;2024-01-25T02:44:42;2.78;;;2.67;;
57573;SDS011;68988;49.000;21.242;2024-01-25T02:47:08;2.58;;;2.47;;
57573;SDS011;68988;49.000;21.242;2024-01-25T02:49:33;2.75;;;2.65;;
57573;SDS011;68988;49.000;21.242;2024-01-25T02:51:59;2.80;;;2.70;;
57573;SDS011;68988;49.000;21.242;2024-01-25T02:54:24;3.25;;;3.05;;
57573;SDS011;68988;49.000;21.242;2024-01-25T02:56:49;2.90;;;2.80;;
57573;SDS011;68988;49.000;21.242;2024-01-25T02:59:15;2.95;;;2.85;;
57573;SDS011;68988;49.000;21.242;2024-01-25T03:01:40;2.40;;;2.30;;
57573;SDS011;68988;49.000;21.242;2024-01-25T03:04:09;3.10;;;3.00;;
57573;SDS011;68988;49.000;21.242;2024-01-25T03:06:35;2.90;;;2.70;;
57573;SDS011;68988;49.000;21.242;2024-01-25T03:09:01;2.83;;;2.72;;
57573;SDS011;68988;49.000;21.242;2024-01-25T03:11:27;2.63;;;2.53;;
57573;SDS011;68988;49.000;21.242;2024-01-25T03:13:53;2.70;;;2.60;;
57573;SDS011;68988;49.000;21.242;2024-01-25T03:16:18;2.80;;;2.70;;
57573;SDS011;68988;49.000;21.242;2024-01-25T03:18:43;2.75;;;2.65;;
57573;SDS011;68988;49.000;21.242;2024-01-25T03:21:09;2.70;;;2.60;;
57573;SDS011;68988;49.000;21.242;2024-01-25T03:23:34;3.30;;;3.10;;
57573;SDS011;68988;49.000;21.242;2024-01-25T03:26:01;2.58;;;2.47;;
57573;SDS011;68988;49.000;21.242;2024-01-25T03:28:27;3.30;;;3.10;;
57573;SDS011;68988;49.000;21.242;2024-01-25T03:30:52;2.92;;;2.83;;
57573;SDS011;68988;49.000;21.242;2024-01-25T03:33:17;2.50;;;2.40;;
57573;SDS011;68988;49.000;21.242;2024-01-25T03:35:43;3.17;;;2.97;;
57573;SDS011;68988;49.000;21.242;2024-01-25T03:38:08;2.80;;;2.70;;
57573;SDS011;68988;49.000;21.242;2024-01-25T03:40:33;2.78;;;2.67;;
57573;SDS011;68988;49.000;21.242;2024-01-25T03:42:59;2.70;;;2.60;;
57573;SDS011;68988;49.000;21.242;2024-01-25T03:45:24;2.40;;;2.30;;
57573;SDS011;68988;49.000;21.242;2024-01-25T03:47:49;3.15;;;2.97;;
57573;SDS011;68988;49.000;21.242;2024-01-25T03:50:15;2.90;;;2.80;;
57573;SDS011;68988;49.000;21.242;2024-01-25T03:52:40;2.58;;;2.47;;
57573;SDS011;68988;49.000;21.242;2024-01-25T03:55:06;2.65;;;2.55;;
57573;SDS011;68988;49.000;21.242;2024-01-25T03:57:32;2.35;;;2.25;;
57573;SDS011;68988;49.000;21.242;2024-01-25T03:59:57;2.88;;;2.78;;
57573;SDS011;68988;49.000;21.242;2024-01-25T04:02:23;2.85;;;2.72;;
57573;SDS011;68988;49.000;21.242;2024-01-25T04:04:48;2.60;;;2.50;;
57573;SDS011;68988;49.000;21.242;2024-01-25T04:07:14;2.83;;;2.72;;
57573;SDS011;68988;49.000;21.242;2024-01-25T04:09:40;2.85;;;2.70;;
57573;SDS011;68988;49.000;21.242;2024-01-25T04:12:05;2.97;;;2.88;;
57573;SDS011;68988;49.000;21.242;2024-01-25T04:14:31;2.35;;;2.25;;
57573;SDS011;68988;49.000;21.242;2024-01-25T04:16:56;2.80;;;2.70;;
57573;SDS011;68988;49.000;21.242;2024-01-25T04:19:21;2.63;;;2.53;;
57573;SDS011;68988;49.000;21.242;2024-01-25T04:21:47;2.80;;;2.70;;
57573;SDS011;68988;49.000;21.242;2024-01-25T04:24:12;2.78;;;2.67;;
57573;SDS011;68988;49.000;21.242;2024-01-25T04:26:38;3.30;;;3.10;;
57573;SDS011;68988;49.000;21.242;2024-01-25T04:29:03;2.50;;;2.40;;
57573;SDS011;68988;49.000;21.242;2024-01-25T04:31:28;2.85;;;2.70;;
57573;SDS011;68988;49.000;21.242;2024-01-25T04:33:54;2.60;;;2.50;;
57573;SDS011;68988;49.000;21.242;2024-01-25T04:36:19;2.60;;;2.50;;
57573;SDS011;68988;49.000;21.242;2024-01-25T04:38:44;3.00;;;2.80;;
57573;SDS011;68988;49.000;21.242;2024-01-25T04:41:10;3.00;;;2.80;;
57573;SDS011;68988;49.000;21.242;2024-01-25T04:43:35;2.85;;;2.75;;
57573;SDS011;68988;49.000;21.242;2024-01-25T04:46:04;2.78;;;2.67;;
57573;SDS011;68988;49.000;21.242;2024-01-25T04:48:30;2.70;;;2.60;;
57573;SDS011;68988;49.000;21.242;2024-01-25T04:50:58;2.80;;;2.70;;
57573;SDS011;68988;49.000;21.242;2024-01-25T04:53:24;2.78;;;2.63;;
57573;SDS011;68988;49.000;21.242;2024-01-25T04:55:49;2.80;;;2.70;;
57573;SDS011;68988;49.000;21.242;2024-01-25T04:58:15;2.80;;;2.70;;
57573;SDS011;68988;49.000;21.242;2024-01-25T05:00:40;2.90;;;2.75;;
57573;SDS011;68988;49.000;21.242;2024-01-25T05:03:05;2.80;;;2.60;;
57573;SDS011;68988;49.000;21.242;2024-01-25T05:05:31;2.55;;;2.40;;
57573;SDS011;68988;49.000;21.242;2024-01-25T05:07:56;3.20;;;3.00;;
57573;SDS011;68988;49.000;21.242;2024-01-25T05:10:21;2.70;;;2.60;;
57573;SDS011;68988;49.000;21.242;2024-01-25T05:12:48;2.70;;;2.60;;
57573;SDS011;68988;49.000;21.242;2024-01-25T05:15:13;2.72;;;2.63;;
57573;SDS011;68988;49.000;21.242;2024-01-25T05:17:39;2.70;;;2.60;;
57573;SDS011;68988;49.000;21.242;2024-01-25T05:20:04;2.80;;;2.70;;
57573;SDS011;68988;49.000;21.242;2024-01-25T05:22:32;2.78;;;2.67;;
57573;SDS011;68988;49.000;21.242;2024-01-25T05:24:57;2.58;;;2.47;;
57573;SDS011;68988;49.000;21.242;2024-01-25T05:27:22;2.75;;;2.63;;
57573;SDS011;68988;49.000;21.242;2024-01-25T05:29:48;3.28;;;3.08;;
57573;SDS011;68988;49.000;21.242;2024-01-25T05:32:13;3.85;;;2.90;;
57573;SDS011;68988;49.000;21.242;2024-01-25T05:34:39;2.35;;;2.25;;
57573;SDS011;68988;49.000;21.242;2024-01-25T05:37:04;26.45;;;13.88;;
57573;SDS011;68988;49.000;21.242;2024-01-25T05:39:29;19.60;;;12.93;;
57573;SDS011;68988;49.000;21.242;2024-01-25T05:41:55;10.90;;;9.98;;
57573;SDS011;68988;49.000;21.242;2024-01-25T05:44:20;9.50;;;8.70;;
57573;SDS011;68988;49.000;21.242;2024-01-25T05:46:45;9.02;;;8.35;;
57573;SDS011;68988;49.000;21.242;2024-01-25T05:49:11;9.18;;;8.43;;
57573;SDS011;68988;49.000;21.242;2024-01-25T05:51:37;8.18;;;7.60;;
57573;SDS011;68988;49.000;21.242;2024-01-25T05:54:02;6.95;;;6.45;;
57573;SDS011;68988;49.000;21.242;2024-01-25T05:56:28;7.72;;;6.95;;
57573;SDS011;68988;49.000;21.242;2024-01-25T05:58:53;9.77;;;7.03;;
57573;SDS011;68988;49.000;21.242;2024-01-25T06:01:19;7.82;;;6.93;;
57573;SDS011;68988;49.000;21.242;2024-01-25T06:03:44;6.60;;;6.20;;
57573;SDS011;68988;49.000;21.242;2024-01-25T06:06:10;7.07;;;6.57;;
57573;SDS011;68988;49.000;21.242;2024-01-25T06:08:35;6.78;;;6.38;;
57573;SDS011;68988;49.000;21.242;2024-01-25T06:11:00;6.75;;;6.28;;
57573;SDS011;68988;49.000;21.242;2024-01-25T06:13:26;6.38;;;6.03;;
57573;SDS011;68988;49.000;21.242;2024-01-25T06:15:51;6.50;;;5.88;;
57573;SDS011;68988;49.000;21.242;2024-01-25T06:18:16;6.35;;;5.95;;
57573;SDS011;68988;49.000;21.242;2024-01-25T06:20:42;5.70;;;5.18;;
57573;SDS011;68988;49.000;21.242;2024-01-25T06:23:09;5.65;;;5.20;;
57573;SDS011;68988;49.000;21.242;2024-01-25T06:25:34;6.03;;;5.63;;
57573;SDS011;68988;49.000;21.242;2024-01-25T06:28:01;5.47;;;5.18;;
57573;SDS011;68988;49.000;21.242;2024-01-25T06:30:27;5.53;;;5.22;;
57573;SDS011;68988;49.000;21.242;2024-01-25T06:32:52;7.05;;;5.65;;
57573;SDS011;68988;49.000;21.242;2024-01-25T06:35:18;6.20;;;5.70;;
57573;SDS011;68988;49.000;21.242;2024-01-25T06:37:43;6.32;;;5.75;;
57573;SDS011;68988;49.000;21.242;2024-01-25T06:40:09;5.60;;;5.20;;
57573;SDS011;68988;49.000;21.242;2024-01-25T06:42:34;7.25;;;5.57;;
57573;SDS011;68988;49.000;21.242;2024-01-25T06:45:00;7.38;;;5.50;;
57573;SDS011;68988;49.000;21.242;2024-01-25T06:47:25;8.73;;;5.65;;
57573;SDS011;68988;49.000;21.242;2024-01-25T06:49:50;21.13;;;5.80;;
57573;SDS011;68988;49.000;21.242;2024-01-25T06:52:16;7.20;;;5.82;;
57573;SDS011;68988;49.000;21.242;2024-01-25T06:54:42;10.57;;;6.00;;
57573;SDS011;68988;49.000;21.242;2024-01-25T06:57:08;11.07;;;5.65;;
57573;SDS011;68988;49.000;21.242;2024-01-25T06:59:33;8.73;;;5.43;;
57573;SDS011;68988;49.000;21.242;2024-01-25T07:01:58;8.65;;;5.75;;
57573;SDS011;68988;49.000;21.242;2024-01-25T07:04:24;22.38;;;6.07;;
57573;SDS011;68988;49.000;21.242;2024-01-25T07:06:49;5.95;;;5.38;;
57573;SDS011;68988;49.000;21.242;2024-01-25T07:09:15;7.47;;;5.40;;
57573;SDS011;68988;49.000;21.242;2024-01-25T07:11:40;15.52;;;6.05;;
57573;SDS011;68988;49.000;21.242;2024-01-25T07:14:06;13.32;;;5.70;;
57573;SDS011;68988;49.000;21.242;2024-01-25T07:16:31;7.88;;;5.28;;
57573;SDS011;68988;49.000;21.242;2024-01-25T07:18:57;17.42;;;5.35;;
57573;SDS011;68988;49.000;21.242;2024-01-25T07:21:22;9.88;;;5.55;;
57573;SDS011;68988;49.000;21.242;2024-01-25T07:23:48;8.30;;;5.75;;
57573;SDS011;68988;49.000;21.242;2024-01-25T07:26:17;12.27;;;6.13;;
57573;SDS011;68988;49.000;21.242;2024-01-25T07:28:43;8.93;;;5.20;;
57573;SDS011;68988;49.000;21.242;2024-01-25T07:31:08;10.90;;;5.03;;
57573;SDS011;68988;49.000;21.242;2024-01-25T07:33:34;8.15;;;5.10;;
57573;SDS011;68988;49.000;21.242;2024-01-25T07:36:00;8.77;;;6.00;;
57573;SDS011;68988;49.000;21.242;2024-01-25T07:38:26;11.75;;;5.50;;
57573;SDS011;68988;49.000;21.242;2024-01-25T07:40:51;10.43;;;4.90;;
57573;SDS011;68988;49.000;21.242;2024-01-25T07:43:17;6.82;;;5.15;;
57573;SDS011;68988;49.000;21.242;2024-01-25T07:45:42;7.07;;;5.75;;
57573;SDS011;68988;49.000;21.242;2024-01-25T07:48:08;16.60;;;5.45;;
57573;SDS011;68988;49.000;21.242;2024-01-25T07:50:33;10.52;;;5.15;;
57573;SDS011;68988;49.000;21.242;2024-01-25T07:52:58;7.72;;;5.32;;
57573;SDS011;68988;49.000;21.242;2024-01-25T07:55:26;9.40;;;5.35;;
57573;SDS011;68988;49.000;21.242;2024-01-25T07:57:51;10.10;;;5.32;;
57573;SDS011;68988;49.000;21.242;2024-01-25T08:00:17;10.23;;;5.47;;
57573;SDS011;68988;49.000;21.242;2024-01-25T08:02:42;7.40;;;5.20;;
57573;SDS011;68988;49.000;21.242;2024-01-25T08:05:10;8.88;;;5.40;;
57573;SDS011;68988;49.000;21.242;2024-01-25T08:07:36;13.27;;;5.28;;
57573;SDS011;68988;49.000;21.242;2024-01-25T08:10:03;14.82;;;5.70;;
57573;SDS011;68988;49.000;21.242;2024-01-25T08:12:29;11.20;;;5.43;;
57573;SDS011;68988;49.000;21.242;2024-01-25T08:14:55;13.25;;;5.88;;
57573;SDS011;68988;49.000;21.242;2024-01-25T08:17:23;10.82;;;5.53;;
57573;SDS011;68988;49.000;21.242;2024-01-25T08:19:48;6.93;;;5.35;;
57573;SDS011;68988;49.000;21.242;2024-01-25T08:22:14;13.25;;;5.53;;
57573;SDS011;68988;49.000;21.242;2024-01-25T08:24:39;10.10;;;5.38;;
57573;SDS011;68988;49.000;21.242;2024-01-25T08:27:06;9.38;;;4.93;;
57573;SDS011;68988;49.000;21.242;2024-01-25T08:29:36;15.10;;;5.20;;
57573;SDS011;68988;49.000;21.242;2024-01-25T08:32:02;15.30;;;5.15;;
57573;SDS011;68988;49.000;21.242;2024-01-25T08:34:28;11.15;;;5.18;;
57573;SDS011;68988;49.000;21.242;2024-01-25T08:36:54;7.97;;;5.10;;
57573;SDS011;68988;49.000;21.242;2024-01-25T08:39:19;10.10;;;5.03;;
57573;SDS011;68988;49.000;21.242;2024-01-25T08:41:45;18.38;;;5.20;;
57573;SDS011;68988;49.000;21.242;2024-01-25T08:44:12;10.75;;;5.40;;
57573;SDS011;68988;49.000;21.242;2024-01-25T08:46:37;7.90;;;4.78;;
57573;SDS011;68988;49.000;21.242;2024-01-25T08:49:03;10.82;;;5.60;;
57573;SDS011;68988;49.000;21.242;2024-01-25T08:51:33;12.68;;;5.22;;
57573;SDS011;68988;49.000;21.242;2024-01-25T08:53:58;9.95;;;5.32;;
57573;SDS011;68988;49.000;21.242;2024-01-25T08:56:24;14.20;;;5.50;;
57573;SDS011;68988;49.000;21.242;2024-01-25T08:58:49;8.73;;;5.10;;
57573;SDS011;68988;49.000;21.242;2024-01-25T09:01:15;5.90;;;5.10;;
57573;SDS011;68988;49.000;21.242;2024-01-25T09:03:40;10.50;;;5.07;;
57573;SDS011;68988;49.000;21.242;2024-01-25T09:06:06;13.70;;;4.53;;
57573;SDS011;68988;49.000;21.242;2024-01-25T09:08:32;15.52;;;5.10;;
57573;SDS011;68988;49.000;21.242;2024-01-25T09:10:58;11.48;;;4.72;;
57573;SDS011;68988;49.000;21.242;2024-01-25T09:13:23;29.40;;;5.20;;
57573;SDS011;68988;49.000;21.242;2024-01-25T09:15:49;17.83;;;4.97;;
57573;SDS011;68988;49.000;21.242;2024-01-25T09:18:14;11.20;;;4.97;;
57573;SDS011;68988;49.000;21.242;2024-01-25T09:20:40;16.38;;;5.38;;
57573;SDS011;68988;49.000;21.242;2024-01-25T09:23:06;11.07;;;5.15;;
57573;SDS011;68988;49.000;21.242;2024-01-25T09:25:31;20.52;;;5.38;;
57573;SDS011;68988;49.000;21.242;2024-01-25T09:27:57;13.82;;;5.22;;
57573;SDS011;68988;49.000;21.242;2024-01-25T09:30:22;14.82;;;4.85;;
57573;SDS011;68988;49.000;21.242;2024-01-25T09:32:48;9.23;;;4.93;;
57573;SDS011;68988;49.000;21.242;2024-01-25T09:35:14;16.10;;;4.95;;
57573;SDS011;68988;49.000;21.242;2024-01-25T09:37:39;9.23;;;4.60;;
57573;SDS011;68988;49.000;21.242;2024-01-25T09:40:05;7.72;;;4.90;;
57573;SDS011;68988;49.000;21.242;2024-01-25T09:42:31;11.25;;;4.93;;
57573;SDS011;68988;49.000;21.242;2024-01-25T09:44:56;10.80;;;4.57;;
57573;SDS011;68988;49.000;21.242;2024-01-25T09:47:22;13.25;;;4.85;;
57573;SDS011;68988;49.000;21.242;2024-01-25T09:49:48;10.30;;;4.72;;
57573;SDS011;68988;49.000;21.242;2024-01-25T09:52:13;9.07;;;4.47;;
57573;SDS011;68988;49.000;21.242;2024-01-25T09:54:40;10.55;;;5.07;;
57573;SDS011;68988;49.000;21.242;2024-01-25T09:57:13;15.00;;;4.90;;
57573;SDS011;68988;49.000;21.242;2024-01-25T09:59:43;8.25;;;4.57;;
57573;SDS011;68988;49.000;21.242;2024-01-25T10:02:10;14.02;;;5.00;;
57573;SDS011;68988;49.000;21.242;2024-01-25T10:04:36;8.98;;;4.80;;
57573;SDS011;68988;49.000;21.242;2024-01-25T10:07:01;11.60;;;5.00;;
57573;SDS011;68988;49.000;21.242;2024-01-25T10:09:27;19.27;;;4.70;;
57573;SDS011;68988;49.000;21.242;2024-01-25T10:11:52;10.07;;;4.80;;
57573;SDS011;68988;49.000;21.242;2024-01-25T10:14:18;19.65;;;5.57;;
57573;SDS011;68988;49.000;21.242;2024-01-25T10:16:44;7.28;;;4.68;;
57573;SDS011;68988;49.000;21.242;2024-01-25T10:19:10;8.85;;;4.78;;
57573;SDS011;68988;49.000;21.242;2024-01-25T10:21:37;8.20;;;4.70;;
57573;SDS011;68988;49.000;21.242;2024-01-25T10:24:02;12.93;;;5.40;;
57573;SDS011;68988;49.000;21.242;2024-01-25T10:26:28;11.40;;;5.20;;
57573;SDS011;68988;49.000;21.242;2024-01-25T10:28:54;7.65;;;5.05;;
57573;SDS011;68988;49.000;21.242;2024-01-25T10:31:24;11.63;;;4.70;;
57573;SDS011;68988;49.000;21.242;2024-01-25T10:33:55;7.65;;;4.80;;
57573;SDS011;68988;49.000;21.242;2024-01-25T10:36:21;6.82;;;4.95;;
57573;SDS011;68988;49.000;21.242;2024-01-25T10:38:54;13.55;;;4.88;;
57573;SDS011;68988;49.000;21.242;2024-01-25T10:41:19;7.72;;;4.30;;
57573;SDS011;68988;49.000;21.242;2024-01-25T10:43:45;7.10;;;4.60;;
57573;SDS011;68988;49.000;21.242;2024-01-25T10:46:11;9.48;;;4.60;;
57573;SDS011;68988;49.000;21.242;2024-01-25T10:48:36;13.20;;;4.90;;
57573;SDS011;68988;49.000;21.242;2024-01-25T10:51:03;14.00;;;4.65;;
57573;SDS011;68988;49.000;21.242;2024-01-25T10:53:30;8.85;;;4.63;;
57573;SDS011;68988;49.000;21.242;2024-01-25T10:55:57;9.45;;;4.30;;
57573;SDS011;68988;49.000;21.242;2024-01-25T10:58:23;8.15;;;4.80;;
57573;SDS011;68988;49.000;21.242;2024-01-25T11:00:51;7.10;;;4.53;;
57573;SDS011;68988;49.000;21.242;2024-01-25T11:03:23;9.55;;;4.70;;
57573;SDS011;68988;49.000;21.242;2024-01-25T11:05:51;10.82;;;5.05;;
57573;SDS011;68988;49.000;21.242;2024-01-25T11:08:19;7.97;;;4.40;;
57573;SDS011;68988;49.000;21.242;2024-01-25T11:10:48;19.20;;;4.35;;
57573;SDS011;68988;49.000;21.242;2024-01-25T11:13:16;14.77;;;4.78;;
57573;SDS011;68988;49.000;21.242;2024-01-25T11:15:41;10.70;;;4.53;;
57573;SDS011;68988;49.000;21.242;2024-01-25T11:18:07;6.55;;;4.53;;
57573;SDS011;68988;49.000;21.242;2024-01-25T11:20:34;9.55;;;4.13;;
57573;SDS011;68988;49.000;21.242;2024-01-25T11:23:04;9.18;;;4.55;;
57573;SDS011;68988;49.000;21.242;2024-01-25T11:25:32;9.32;;;4.38;;
57573;SDS011;68988;49.000;21.242;2024-01-25T11:27:59;9.40;;;4.20;;
57573;SDS011;68988;49.000;21.242;2024-01-25T11:30:26;8.48;;;4.20;;
57573;SDS011;68988;49.000;21.242;2024-01-25T11:32:51;9.85;;;4.10;;
57573;SDS011;68988;49.000;21.242;2024-01-25T11:35:17;5.13;;;4.05;;
57573;SDS011;68988;49.000;21.242;2024-01-25T11:37:43;6.88;;;4.60;;
57573;SDS011;68988;49.000;21.242;2024-01-25T11:40:12;7.10;;;4.20;;
57573;SDS011;68988;49.000;21.242;2024-01-25T11:42:40;6.40;;;4.35;;
57573;SDS011;68988;49.000;21.242;2024-01-25T11:45:07;8.43;;;4.25;;
57573;SDS011;68988;49.000;21.242;2024-01-25T11:47:35;8.98;;;4.47;;
57573;SDS011;68988;49.000;21.242;2024-01-25T11:50:00;12.57;;;4.40;;
57573;SDS011;68988;49.000;21.242;2024-01-25T11:52:27;9.13;;;3.90;;
57573;SDS011;68988;49.000;21.242;2024-01-25T11:54:52;12.25;;;4.32;;
57573;SDS011;68988;49.000;21.242;2024-01-25T11:57:18;10.73;;;4.22;;
57573;SDS011;68988;49.000;21.242;2024-01-25T11:59:44;4.95;;;4.47;;
57573;SDS011;68988;49.000;21.242;2024-01-25T12:02:13;5.72;;;4.50;;
57573;SDS011;68988;49.000;21.242;2024-01-25T12:04:39;7.35;;;4.38;;
57573;SDS011;68988;49.000;21.242;2024-01-25T12:07:04;5.72;;;4.78;;
57573;SDS011;68988;49.000;21.242;2024-01-25T12:09:30;8.82;;;4.15;;
57573;SDS011;68988;49.000;21.242;2024-01-25T12:11:55;4.50;;;3.85;;
57573;SDS011;68988;49.000;21.242;2024-01-25T12:14:21;8.95;;;4.13;;
57573;SDS011;68988;49.000;21.242;2024-01-25T12:16:49;6.63;;;3.90;;
57573;SDS011;68988;49.000;21.242;2024-01-25T12:19:14;5.05;;;4.07;;
57573;SDS011;68988;49.000;21.242;2024-01-25T12:21:43;4.88;;;4.40;;
57573;SDS011;68988;49.000;21.242;2024-01-25T12:24:09;7.03;;;4.07;;
57573;SDS011;68988;49.000;21.242;2024-01-25T12:26:35;7.47;;;3.85;;
57573;SDS011;68988;49.000;21.242;2024-01-25T12:29:01;8.95;;;4.20;;
57573;SDS011;68988;49.000;21.242;2024-01-25T12:31:28;9.98;;;3.97;;
57573;SDS011;68988;49.000;21.242;2024-01-25T12:33:53;5.35;;;4.03;;
57573;SDS011;68988;49.000;21.242;2024-01-25T12:36:19;11.45;;;3.67;;
57573;SDS011;68988;49.000;21.242;2024-01-25T12:38:44;6.75;;;4.25;;
57573;SDS011;68988;49.000;21.242;2024-01-25T12:41:09;8.48;;;3.88;;
57573;SDS011;68988;49.000;21.242;2024-01-25T12:43:35;8.18;;;3.80;;
57573;SDS011;68988;49.000;21.242;2024-01-25T12:46:00;11.65;;;4.20;;
57573;SDS011;68988;49.000;21.242;2024-01-25T12:48:26;8.10;;;3.58;;
57573;SDS011;68988;49.000;21.242;2024-01-25T12:50:51;15.02;;;3.83;;
57573;SDS011;68988;49.000;21.242;2024-01-25T12:53:17;6.72;;;3.60;;
57573;SDS011;68988;49.000;21.242;2024-01-25T12:55:42;8.88;;;4.18;;
57573;SDS011;68988;49.000;21.242;2024-01-25T12:58:07;5.90;;;3.45;;
57573;SDS011;68988;49.000;21.242;2024-01-25T13:00:33;8.05;;;3.42;;
57573;SDS011;68988;49.000;21.242;2024-01-25T13:02:58;9.63;;;4.00;;
57573;SDS011;68988;49.000;21.242;2024-01-25T13:05:26;4.38;;;3.58;;
57573;SDS011;68988;49.000;21.242;2024-01-25T13:07:52;5.70;;;3.55;;
57573;SDS011;68988;49.000;21.242;2024-01-25T13:10:17;5.53;;;4.00;;
57573;SDS011;68988;49.000;21.242;2024-01-25T13:12:43;5.50;;;3.72;;
57573;SDS011;68988;49.000;21.242;2024-01-25T13:15:08;5.13;;;3.92;;
57573;SDS011;68988;49.000;21.242;2024-01-25T13:17:34;12.65;;;3.95;;
57573;SDS011;68988;49.000;21.242;2024-01-25T13:20:03;4.75;;;3.50;;
57573;SDS011;68988;49.000;21.242;2024-01-25T13:22:31;6.72;;;3.60;;
57573;SDS011;68988;49.000;21.242;2024-01-25T13:24:58;6.57;;;3.40;;
57573;SDS011;68988;49.000;21.242;2024-01-25T13:27:24;4.35;;;3.95;;
57573;SDS011;68988;49.000;21.242;2024-01-25T13:29:50;8.13;;;3.42;;
57573;SDS011;68988;49.000;21.242;2024-01-25T13:32:15;8.02;;;3.65;;
57573;SDS011;68988;49.000;21.242;2024-01-25T13:34:40;7.28;;;3.28;;
57573;SDS011;68988;49.000;21.242;2024-01-25T13:37:06;6.20;;;4.20;;
57573;SDS011;68988;49.000;21.242;2024-01-25T13:39:31;4.50;;;3.40;;
57573;SDS011;68988;49.000;21.242;2024-01-25T13:41:56;6.18;;;3.58;;
57573;SDS011;68988;49.000;21.242;2024-01-25T13:44:22;8.55;;;3.47;;
57573;SDS011;68988;49.000;21.242;2024-01-25T13:46:47;15.25;;;3.25;;
57573;SDS011;68988;49.000;21.242;2024-01-25T13:49:13;7.45;;;3.30;;
57573;SDS011;68988;49.000;21.242;2024-01-25T13:51:38;3.70;;;3.40;;
57573;SDS011;68988;49.000;21.242;2024-01-25T13:54:04;9.60;;;3.58;;
57573;SDS011;68988;49.000;21.242;2024-01-25T13:56:29;11.52;;;3.60;;
57573;SDS011;68988;49.000;21.242;2024-01-25T13:58:55;6.55;;;3.67;;
57573;SDS011;68988;49.000;21.242;2024-01-25T14:01:20;6.15;;;3.45;;
57573;SDS011;68988;49.000;21.242;2024-01-25T14:03:45;5.95;;;2.92;;
57573;SDS011;68988;49.000;21.242;2024-01-25T14:06:11;5.43;;;3.50;;
57573;SDS011;68988;49.000;21.242;2024-01-25T14:08:36;4.97;;;3.35;;
57573;SDS011;68988;49.000;21.242;2024-01-25T14:11:02;9.20;;;3.45;;
57573;SDS011;68988;49.000;21.242;2024-01-25T14:13:29;9.18;;;3.83;;
57573;SDS011;68988;49.000;21.242;2024-01-25T14:15:54;6.57;;;3.20;;
57573;SDS011;68988;49.000;21.242;2024-01-25T14:18:20;7.80;;;3.40;;
57573;SDS011;68988;49.000;21.242;2024-01-25T14:20:45;7.03;;;3.60;;
57573;SDS011;68988;49.000;21.242;2024-01-25T14:23:11;3.83;;;3.47;;